sensor_id;sensor_type;location;lat;lon;timestamp;P1;durP1;ratioP1;P2;durP2;ratioP2
48667;SDS011;34453;52.198;5.004;2023-05-23T00:02:12;26.17;;;11.57;;
48667;SDS011;34453;52.198;5.004;2023-05-23T00:04:39;19.85;;;12.55;;
48667;SDS011;34453;52.198;5.004;2023-05-23T00:07:04;32.15;;;12.75;;
48667;SDS011;34453;52.198;5.004;2023-05-23T00:09:30;27.55;;;13.45;;
48667;SDS011;34453;52.198;5.004;2023-05-23T00:11:55;23.83;;;12.13;;
48667;SDS011;34453;52.198;5.004;2023-05-23T00:14:21;29.65;;;12.52;;
48667;SDS011;34453;52.198;5.004;2023-05-23T00:16:47;24.77;;;11.27;;
48667;SDS011;34453;52.198;5.004;2023-05-23T00:19:13;20.08;;;11.40;;
48667;SDS011;34453;52.198;5.004;2023-05-23T00:21:40;23.77;;;11.18;;
48667;SDS011;34453;52.198;5.004;2023-05-23T00:24:05;24.15;;;11.55;;
48667;SDS011;34453;52.198;5.004;2023-05-23T00:26:31;30.73;;;12.50;;
48667;SDS011;34453;52.198;5.004;2023-05-23T00:28:57;24.92;;;12.15;;
48667;SDS011;34453;52.198;5.004;2023-05-23T00:31:23;22.30;;;12.93;;
48667;SDS011;34453;52.198;5.004;2023-05-23T00:33:49;17.80;;;11.75;;
48667;SDS011;34453;52.198;5.004;2023-05-23T00:36:14;26.13;;;13.27;;
48667;SDS011;34453;52.198;5.004;2023-05-23T00:38:39;23.27;;;12.13;;
48667;SDS011;34453;52.198;5.004;2023-05-23T00:41:05;20.67;;;10.57;;
48667;SDS011;34453;52.198;5.004;2023-05-23T00:43:31;20.92;;;11.60;;
48667;SDS011;34453;52.198;5.004;2023-05-23T00:45:56;21.17;;;9.00;;
48667;SDS011;34453;52.198;5.004;2023-05-23T00:48:25;16.15;;;7.20;;
48667;SDS011;34453;52.198;5.004;2023-05-23T00:50:51;11.23;;;7.30;;
48667;SDS011;34453;52.198;5.004;2023-05-23T00:53:17;13.50;;;7.45;;
48667;SDS011;34453;52.198;5.004;2023-05-23T00:55:43;14.98;;;7.65;;
48667;SDS011;34453;52.198;5.004;2023-05-23T00:58:09;11.85;;;7.18;;
48667;SDS011;34453;52.198;5.004;2023-05-23T01:00:35;7.63;;;6.93;;
48667;SDS011;34453;52.198;5.004;2023-05-23T01:03:02;15.70;;;6.35;;
48667;SDS011;34453;52.198;5.004;2023-05-23T01:05:29;12.30;;;7.07;;
48667;SDS011;34453;52.198;5.004;2023-05-23T01:07:55;11.82;;;6.63;;
48667;SDS011;34453;52.198;5.004;2023-05-23T01:10:25;7.13;;;6.47;;
48667;SDS011;34453;52.198;5.004;2023-05-23T01:15:28;13.98;;;8.35;;
48667;SDS011;34453;52.198;5.004;2023-05-23T01:18:01;9.55;;;7.15;;
48667;SDS011;34453;52.198;5.004;2023-05-23T01:20:33;11.80;;;6.75;;
48667;SDS011;34453;52.198;5.004;2023-05-23T01:26:27;10.52;;;5.68;;
48667;SDS011;34453;52.198;5.004;2023-05-23T01:31:46;11.85;;;6.88;;
48667;SDS011;34453;52.198;5.004;2023-05-23T01:34:16;12.80;;;7.15;;
48667;SDS011;34453;52.198;5.004;2023-05-23T01:36:43;13.93;;;6.85;;
48667;SDS011;34453;52.198;5.004;2023-05-23T01:39:09;16.05;;;7.40;;
48667;SDS011;34453;52.198;5.004;2023-05-23T01:41:35;16.48;;;8.93;;
48667;SDS011;34453;52.198;5.004;2023-05-23T01:44:01;15.32;;;7.47;;
48667;SDS011;34453;52.198;5.004;2023-05-23T01:46:27;16.15;;;7.80;;
48667;SDS011;34453;52.198;5.004;2023-05-23T01:48:55;15.88;;;8.75;;
48667;SDS011;34453;52.198;5.004;2023-05-23T01:51:22;20.85;;;8.25;;
48667;SDS011;34453;52.198;5.004;2023-05-23T01:53:51;20.63;;;9.95;;
48667;SDS011;34453;52.198;5.004;2023-05-23T01:56:17;27.27;;;8.95;;
48667;SDS011;34453;52.198;5.004;2023-05-23T01:58:45;23.50;;;9.75;;
48667;SDS011;34453;52.198;5.004;2023-05-23T02:01:11;17.88;;;8.45;;
48667;SDS011;34453;52.198;5.004;2023-05-23T02:03:36;21.23;;;8.77;;
48667;SDS011;34453;52.198;5.004;2023-05-23T02:06:02;13.98;;;8.32;;
48667;SDS011;34453;52.198;5.004;2023-05-23T02:08:27;18.85;;;8.38;;
48667;SDS011;34453;52.198;5.004;2023-05-23T02:10:53;15.88;;;8.18;;
48667;SDS011;34453;52.198;5.004;2023-05-23T02:13:18;21.55;;;7.78;;
48667;SDS011;34453;52.198;5.004;2023-05-23T02:15:43;17.13;;;8.10;;
48667;SDS011;34453;52.198;5.004;2023-05-23T02:18:09;19.70;;;9.40;;
48667;SDS011;34453;52.198;5.004;2023-05-23T02:20:34;14.23;;;8.00;;
48667;SDS011;34453;52.198;5.004;2023-05-23T02:23:00;15.50;;;8.30;;
48667;SDS011;34453;52.198;5.004;2023-05-23T02:25:25;13.45;;;7.32;;
48667;SDS011;34453;52.198;5.004;2023-05-23T02:27:51;17.60;;;8.55;;
48667;SDS011;34453;52.198;5.004;2023-05-23T02:30:16;17.60;;;8.30;;
48667;SDS011;34453;52.198;5.004;2023-05-23T02:32:41;20.50;;;8.43;;
48667;SDS011;34453;52.198;5.004;2023-05-23T02:35:07;24.77;;;9.98;;
48667;SDS011;34453;52.198;5.004;2023-05-23T02:37:32;38.38;;;9.55;;
48667;SDS011;34453;52.198;5.004;2023-05-23T02:39:58;21.40;;;9.55;;
48667;SDS011;34453;52.198;5.004;2023-05-23T02:42:23;26.83;;;9.35;;
48667;SDS011;34453;52.198;5.004;2023-05-23T02:44:49;22.80;;;9.50;;
48667;SDS011;34453;52.198;5.004;2023-05-23T02:47:14;25.38;;;10.57;;
48667;SDS011;34453;52.198;5.004;2023-05-23T02:49:39;28.98;;;9.38;;
48667;SDS011;34453;52.198;5.004;2023-05-23T02:52:05;22.88;;;8.93;;
48667;SDS011;34453;52.198;5.004;2023-05-23T02:54:31;25.05;;;9.68;;
48667;SDS011;34453;52.198;5.004;2023-05-23T02:56:56;23.20;;;9.10;;
48667;SDS011;34453;52.198;5.004;2023-05-23T02:59:22;20.08;;;9.95;;
48667;SDS011;34453;52.198;5.004;2023-05-23T03:01:48;21.90;;;9.43;;
48667;SDS011;34453;52.198;5.004;2023-05-23T03:04:13;26.75;;;10.57;;
48667;SDS011;34453;52.198;5.004;2023-05-23T03:06:39;29.08;;;10.20;;
48667;SDS011;34453;52.198;5.004;2023-05-23T03:09:06;25.63;;;9.35;;
48667;SDS011;34453;52.198;5.004;2023-05-23T03:11:32;24.42;;;8.73;;
48667;SDS011;34453;52.198;5.004;2023-05-23T03:13:58;21.45;;;8.35;;
48667;SDS011;34453;52.198;5.004;2023-05-23T03:16:23;20.42;;;8.25;;
48667;SDS011;34453;52.198;5.004;2023-05-23T03:18:48;23.35;;;7.60;;
48667;SDS011;34453;52.198;5.004;2023-05-23T03:21:14;20.02;;;7.60;;
48667;SDS011;34453;52.198;5.004;2023-05-23T03:23:39;21.80;;;7.55;;
48667;SDS011;34453;52.198;5.004;2023-05-23T03:26:05;20.70;;;7.22;;
48667;SDS011;34453;52.198;5.004;2023-05-23T03:28:30;26.35;;;7.43;;
48667;SDS011;34453;52.198;5.004;2023-05-23T03:30:56;20.42;;;6.35;;
48667;SDS011;34453;52.198;5.004;2023-05-23T03:33:22;14.55;;;6.32;;
48667;SDS011;34453;52.198;5.004;2023-05-23T03:35:47;16.02;;;6.85;;
48667;SDS011;34453;52.198;5.004;2023-05-23T03:38:13;15.40;;;6.72;;
48667;SDS011;34453;52.198;5.004;2023-05-23T03:40:39;25.73;;;7.03;;
48667;SDS011;34453;52.198;5.004;2023-05-23T03:43:05;18.70;;;6.20;;
48667;SDS011;34453;52.198;5.004;2023-05-23T03:45:31;16.40;;;5.07;;
48667;SDS011;34453;52.198;5.004;2023-05-23T03:47:57;20.63;;;5.97;;
48667;SDS011;34453;52.198;5.004;2023-05-23T03:50:23;13.15;;;5.35;;
48667;SDS011;34453;52.198;5.004;2023-05-23T03:52:48;19.88;;;6.20;;
48667;SDS011;34453;52.198;5.004;2023-05-23T03:55:14;8.95;;;5.07;;
48667;SDS011;34453;52.198;5.004;2023-05-23T03:57:39;8.75;;;4.25;;
48667;SDS011;34453;52.198;5.004;2023-05-23T04:00:05;7.47;;;4.13;;
48667;SDS011;34453;52.198;5.004;2023-05-23T04:02:35;14.95;;;5.00;;
48667;SDS011;34453;52.198;5.004;2023-05-23T04:05:01;8.02;;;3.42;;
48667;SDS011;34453;52.198;5.004;2023-05-23T04:07:27;9.10;;;4.00;;
48667;SDS011;34453;52.198;5.004;2023-05-23T04:09:52;16.73;;;4.75;;
48667;SDS011;34453;52.198;5.004;2023-05-23T04:12:18;8.13;;;3.88;;
48667;SDS011;34453;52.198;5.004;2023-05-23T04:14:43;12.55;;;3.97;;
48667;SDS011;34453;52.198;5.004;2023-05-23T04:17:11;15.82;;;4.35;;
48667;SDS011;34453;52.198;5.004;2023-05-23T04:19:37;23.15;;;4.53;;
48667;SDS011;34453;52.198;5.004;2023-05-23T04:22:02;11.85;;;4.13;;
48667;SDS011;34453;52.198;5.004;2023-05-23T04:24:28;13.70;;;3.85;;
48667;SDS011;34453;52.198;5.004;2023-05-23T04:26:53;8.55;;;4.80;;
48667;SDS011;34453;52.198;5.004;2023-05-23T04:29:20;13.30;;;3.90;;
48667;SDS011;34453;52.198;5.004;2023-05-23T04:31:46;13.85;;;4.53;;
48667;SDS011;34453;52.198;5.004;2023-05-23T04:34:11;11.90;;;4.30;;
48667;SDS011;34453;52.198;5.004;2023-05-23T04:36:36;8.45;;;4.30;;
48667;SDS011;34453;52.198;5.004;2023-05-23T04:39:03;12.85;;;3.80;;
48667;SDS011;34453;52.198;5.004;2023-05-23T04:41:29;9.95;;;4.38;;
48667;SDS011;34453;52.198;5.004;2023-05-23T04:43:55;6.68;;;4.05;;
48667;SDS011;34453;52.198;5.004;2023-05-23T04:46:22;9.10;;;4.35;;
48667;SDS011;34453;52.198;5.004;2023-05-23T04:48:50;13.85;;;5.40;;
48667;SDS011;34453;52.198;5.004;2023-05-23T04:51:17;16.98;;;5.32;;
48667;SDS011;34453;52.198;5.004;2023-05-23T04:53:42;18.52;;;6.90;;
48667;SDS011;34453;52.198;5.004;2023-05-23T04:56:08;10.20;;;4.82;;
48667;SDS011;34453;52.198;5.004;2023-05-23T04:58:33;14.43;;;5.35;;
48667;SDS011;34453;52.198;5.004;2023-05-23T05:00:59;10.88;;;4.38;;
48667;SDS011;34453;52.198;5.004;2023-05-23T05:03:25;9.57;;;5.28;;
48667;SDS011;34453;52.198;5.004;2023-05-23T05:05:51;12.65;;;4.63;;
48667;SDS011;34453;52.198;5.004;2023-05-23T05:08:17;13.98;;;5.28;;
48667;SDS011;34453;52.198;5.004;2023-05-23T05:10:44;20.77;;;6.28;;
48667;SDS011;34453;52.198;5.004;2023-05-23T05:13:10;18.13;;;7.03;;
48667;SDS011;34453;52.198;5.004;2023-05-23T05:15:35;13.27;;;6.22;;
48667;SDS011;34453;52.198;5.004;2023-05-23T05:18:00;12.80;;;7.65;;
48667;SDS011;34453;52.198;5.004;2023-05-23T05:20:26;17.83;;;5.65;;
48667;SDS011;34453;52.198;5.004;2023-05-23T05:22:57;21.65;;;8.25;;
48667;SDS011;34453;52.198;5.004;2023-05-23T05:25:22;13.98;;;7.68;;
48667;SDS011;34453;52.198;5.004;2023-05-23T05:27:48;22.85;;;6.13;;
48667;SDS011;34453;52.198;5.004;2023-05-23T05:30:14;14.88;;;5.75;;
48667;SDS011;34453;52.198;5.004;2023-05-23T05:32:40;12.90;;;5.88;;
48667;SDS011;34453;52.198;5.004;2023-05-23T05:35:06;19.70;;;6.30;;
48667;SDS011;34453;52.198;5.004;2023-05-23T05:37:32;13.52;;;5.80;;
48667;SDS011;34453;52.198;5.004;2023-05-23T05:39:58;14.73;;;6.90;;
48667;SDS011;34453;52.198;5.004;2023-05-23T05:42:30;25.55;;;7.30;;
48667;SDS011;34453;52.198;5.004;2023-05-23T05:44:55;19.05;;;7.03;;
48667;SDS011;34453;52.198;5.004;2023-05-23T05:47:20;14.45;;;6.70;;
48667;SDS011;34453;52.198;5.004;2023-05-23T05:49:46;16.23;;;6.88;;
48667;SDS011;34453;52.198;5.004;2023-05-23T05:52:11;16.38;;;6.95;;
48667;SDS011;34453;52.198;5.004;2023-05-23T05:54:37;14.65;;;6.32;;
48667;SDS011;34453;52.198;5.004;2023-05-23T05:57:02;28.40;;;7.95;;
48667;SDS011;34453;52.198;5.004;2023-05-23T05:59:28;20.92;;;7.07;;
48667;SDS011;34453;52.198;5.004;2023-05-23T06:01:53;15.48;;;7.28;;
48667;SDS011;34453;52.198;5.004;2023-05-23T06:04:19;15.90;;;6.20;;
48667;SDS011;34453;52.198;5.004;2023-05-23T06:06:44;16.23;;;6.47;;
48667;SDS011;34453;52.198;5.004;2023-05-23T06:09:10;13.20;;;6.47;;
48667;SDS011;34453;52.198;5.004;2023-05-23T06:11:35;23.42;;;6.53;;
48667;SDS011;34453;52.198;5.004;2023-05-23T06:14:05;20.80;;;6.65;;
48667;SDS011;34453;52.198;5.004;2023-05-23T06:16:31;15.68;;;5.50;;
48667;SDS011;34453;52.198;5.004;2023-05-23T06:18:56;8.98;;;4.80;;
48667;SDS011;34453;52.198;5.004;2023-05-23T06:21:22;8.63;;;4.38;;
48667;SDS011;34453;52.198;5.004;2023-05-23T06:23:47;12.30;;;4.88;;
48667;SDS011;34453;52.198;5.004;2023-05-23T06:26:13;7.75;;;4.22;;
48667;SDS011;34453;52.198;5.004;2023-05-23T06:28:38;5.82;;;3.70;;
48667;SDS011;34453;52.198;5.004;2023-05-23T06:31:04;12.10;;;4.05;;
48667;SDS011;34453;52.198;5.004;2023-05-23T06:33:30;4.15;;;3.38;;
48667;SDS011;34453;52.198;5.004;2023-05-23T06:35:56;6.60;;;4.75;;
48667;SDS011;34453;52.198;5.004;2023-05-23T06:38:22;13.27;;;4.22;;
48667;SDS011;34453;52.198;5.004;2023-05-23T06:40:47;10.02;;;3.38;;
48667;SDS011;34453;52.198;5.004;2023-05-23T06:43:13;7.20;;;2.88;;
48667;SDS011;34453;52.198;5.004;2023-05-23T06:45:38;4.68;;;2.67;;
48667;SDS011;34453;52.198;5.004;2023-05-23T06:48:04;8.80;;;2.50;;
48667;SDS011;34453;52.198;5.004;2023-05-23T06:50:29;15.32;;;3.35;;
48667;SDS011;34453;52.198;5.004;2023-05-23T06:52:55;11.27;;;3.03;;
48667;SDS011;34453;52.198;5.004;2023-05-23T06:55:21;8.52;;;2.78;;
48667;SDS011;34453;52.198;5.004;2023-05-23T06:57:47;6.93;;;2.40;;
48667;SDS011;34453;52.198;5.004;2023-05-23T07:00:16;10.35;;;3.20;;
48667;SDS011;34453;52.198;5.004;2023-05-23T07:02:42;15.70;;;3.42;;
48667;SDS011;34453;52.198;5.004;2023-05-23T07:05:09;13.30;;;2.83;;
48667;SDS011;34453;52.198;5.004;2023-05-23T07:07:35;12.18;;;3.92;;
48667;SDS011;34453;52.198;5.004;2023-05-23T07:10:00;17.00;;;4.30;;
48667;SDS011;34453;52.198;5.004;2023-05-23T07:12:26;18.73;;;3.53;;
48667;SDS011;34453;52.198;5.004;2023-05-23T07:14:51;19.02;;;3.03;;
48667;SDS011;34453;52.198;5.004;2023-05-23T07:17:16;11.52;;;3.25;;
48667;SDS011;34453;52.198;5.004;2023-05-23T07:19:42;15.02;;;3.00;;
48667;SDS011;34453;52.198;5.004;2023-05-23T07:22:07;20.75;;;3.25;;
48667;SDS011;34453;52.198;5.004;2023-05-23T07:24:33;12.07;;;3.20;;
48667;SDS011;34453;52.198;5.004;2023-05-23T07:26:58;20.77;;;4.55;;
48667;SDS011;34453;52.198;5.004;2023-05-23T07:29:24;16.15;;;3.50;;
48667;SDS011;34453;52.198;5.004;2023-05-23T07:31:49;15.52;;;2.70;;
48667;SDS011;34453;52.198;5.004;2023-05-23T07:34:15;10.05;;;3.17;;
48667;SDS011;34453;52.198;5.004;2023-05-23T07:36:40;14.05;;;3.30;;
48667;SDS011;34453;52.198;5.004;2023-05-23T07:39:06;12.82;;;3.22;;
48667;SDS011;34453;52.198;5.004;2023-05-23T07:41:32;18.42;;;2.88;;
48667;SDS011;34453;52.198;5.004;2023-05-23T07:43:57;19.33;;;2.88;;
48667;SDS011;34453;52.198;5.004;2023-05-23T07:46:23;15.93;;;3.50;;
48667;SDS011;34453;52.198;5.004;2023-05-23T07:48:48;17.05;;;2.95;;
48667;SDS011;34453;52.198;5.004;2023-05-23T07:51:14;14.48;;;2.95;;
48667;SDS011;34453;52.198;5.004;2023-05-23T07:53:39;13.65;;;3.20;;
48667;SDS011;34453;52.198;5.004;2023-05-23T07:56:05;19.35;;;3.67;;
48667;SDS011;34453;52.198;5.004;2023-05-23T07:58:31;13.38;;;2.85;;
48667;SDS011;34453;52.198;5.004;2023-05-23T08:00:56;15.90;;;3.00;;
48667;SDS011;34453;52.198;5.004;2023-05-23T08:03:22;15.63;;;2.90;;
48667;SDS011;34453;52.198;5.004;2023-05-23T08:05:48;17.05;;;3.65;;
48667;SDS011;34453;52.198;5.004;2023-05-23T08:08:14;11.80;;;3.05;;
48667;SDS011;34453;52.198;5.004;2023-05-23T08:10:39;17.90;;;3.85;;
48667;SDS011;34453;52.198;5.004;2023-05-23T08:13:05;18.85;;;4.20;;
48667;SDS011;34453;52.198;5.004;2023-05-23T08:15:31;14.18;;;2.97;;
48667;SDS011;34453;52.198;5.004;2023-05-23T08:17:57;14.40;;;3.03;;
48667;SDS011;34453;52.198;5.004;2023-05-23T08:20:24;16.77;;;2.50;;
48667;SDS011;34453;52.198;5.004;2023-05-23T08:22:56;11.82;;;2.95;;
48667;SDS011;34453;52.198;5.004;2023-05-23T08:25:25;19.27;;;3.42;;
48667;SDS011;34453;52.198;5.004;2023-05-23T08:27:54;20.90;;;2.83;;
48667;SDS011;34453;52.198;5.004;2023-05-23T08:30:21;19.70;;;3.55;;
48667;SDS011;34453;52.198;5.004;2023-05-23T08:32:47;16.88;;;3.10;;
48667;SDS011;34453;52.198;5.004;2023-05-23T08:35:13;14.93;;;3.72;;
48667;SDS011;34453;52.198;5.004;2023-05-23T08:37:38;9.65;;;2.88;;
48667;SDS011;34453;52.198;5.004;2023-05-23T08:40:05;17.83;;;4.60;;
48667;SDS011;34453;52.198;5.004;2023-05-23T08:42:32;16.45;;;3.30;;
48667;SDS011;34453;52.198;5.004;2023-05-23T08:44:58;10.70;;;3.08;;
48667;SDS011;34453;52.198;5.004;2023-05-23T08:47:24;17.60;;;3.03;;
48667;SDS011;34453;52.198;5.004;2023-05-23T08:49:50;17.80;;;3.58;;
48667;SDS011;34453;52.198;5.004;2023-05-23T08:52:19;11.88;;;2.72;;
48667;SDS011;34453;52.198;5.004;2023-05-23T08:54:48;12.50;;;2.67;;
48667;SDS011;34453;52.198;5.004;2023-05-23T08:57:15;9.15;;;3.05;;
48667;SDS011;34453;52.198;5.004;2023-05-23T08:59:41;18.35;;;3.58;;
48667;SDS011;34453;52.198;5.004;2023-05-23T09:02:07;11.55;;;3.80;;
48667;SDS011;34453;52.198;5.004;2023-05-23T09:04:36;20.13;;;3.10;;
48667;SDS011;34453;52.198;5.004;2023-05-23T09:07:01;18.92;;;3.40;;
48667;SDS011;34453;52.198;5.004;2023-05-23T09:09:28;8.10;;;2.30;;
48667;SDS011;34453;52.198;5.004;2023-05-23T09:11:54;12.30;;;2.60;;
48667;SDS011;34453;52.198;5.004;2023-05-23T09:14:22;20.95;;;4.20;;
48667;SDS011;34453;52.198;5.004;2023-05-23T09:16:47;11.38;;;2.78;;
48667;SDS011;34453;52.198;5.004;2023-05-23T09:19:13;11.95;;;3.47;;
48667;SDS011;34453;52.198;5.004;2023-05-23T09:21:45;20.65;;;3.30;;
48667;SDS011;34453;52.198;5.004;2023-05-23T09:24:11;19.50;;;2.90;;
48667;SDS011;34453;52.198;5.004;2023-05-23T09:26:36;19.42;;;3.70;;
48667;SDS011;34453;52.198;5.004;2023-05-23T09:29:05;11.40;;;3.28;;
48667;SDS011;34453;52.198;5.004;2023-05-23T09:31:31;11.55;;;2.35;;
48667;SDS011;34453;52.198;5.004;2023-05-23T09:33:57;17.55;;;3.15;;
48667;SDS011;34453;52.198;5.004;2023-05-23T09:36:26;15.52;;;3.30;;
48667;SDS011;34453;52.198;5.004;2023-05-23T09:38:54;13.48;;;3.88;;
48667;SDS011;34453;52.198;5.004;2023-05-23T09:41:20;10.98;;;2.83;;
48667;SDS011;34453;52.198;5.004;2023-05-23T09:43:49;20.95;;;3.40;;
48667;SDS011;34453;52.198;5.004;2023-05-23T09:46:19;10.60;;;3.80;;
48667;SDS011;34453;52.198;5.004;2023-05-23T09:48:51;12.38;;;2.90;;
48667;SDS011;34453;52.198;5.004;2023-05-23T09:53:45;14.63;;;3.67;;
48667;SDS011;34453;52.198;5.004;2023-05-23T09:56:15;13.90;;;3.25;;
48667;SDS011;34453;52.198;5.004;2023-05-23T09:58:47;17.77;;;3.22;;
48667;SDS011;34453;52.198;5.004;2023-05-23T10:01:14;11.77;;;2.90;;
48667;SDS011;34453;52.198;5.004;2023-05-23T10:06:30;7.13;;;2.50;;
48667;SDS011;34453;52.198;5.004;2023-05-23T10:09:03;15.98;;;3.15;;
48667;SDS011;34453;52.198;5.004;2023-05-23T10:13:59;14.43;;;2.83;;
48667;SDS011;34453;52.198;5.004;2023-05-23T10:16:29;13.90;;;3.78;;
48667;SDS011;34453;52.198;5.004;2023-05-23T10:19:24;16.30;;;3.30;;
48667;SDS011;34453;52.198;5.004;2023-05-23T10:21:54;18.35;;;4.20;;
48667;SDS011;34453;52.198;5.004;2023-05-23T10:24:23;13.45;;;3.55;;
48667;SDS011;34453;52.198;5.004;2023-05-23T10:26:51;16.38;;;3.17;;
48667;SDS011;34453;52.198;5.004;2023-05-23T10:29:18;11.55;;;3.83;;
48667;SDS011;34453;52.198;5.004;2023-05-23T10:31:46;10.95;;;3.03;;
48667;SDS011;34453;52.198;5.004;2023-05-23T10:36:53;10.73;;;3.00;;
48667;SDS011;34453;52.198;5.004;2023-05-23T10:45:19;18.35;;;3.40;;
48667;SDS011;34453;52.198;5.004;2023-05-23T10:47:47;13.07;;;3.15;;
48667;SDS011;34453;52.198;5.004;2023-05-23T10:50:16;9.48;;;2.80;;
48667;SDS011;34453;52.198;5.004;2023-05-23T10:53:03;12.30;;;3.50;;
48667;SDS011;34453;52.198;5.004;2023-05-23T10:55:31;15.15;;;3.20;;
48667;SDS011;34453;52.198;5.004;2023-05-23T10:58:08;14.25;;;3.05;;
48667;SDS011;34453;52.198;5.004;2023-05-23T11:03:37;15.63;;;3.47;;
48667;SDS011;34453;52.198;5.004;2023-05-23T11:06:27;14.27;;;3.28;;
48667;SDS011;34453;52.198;5.004;2023-05-23T11:09:16;18.42;;;3.25;;
48667;SDS011;34453;52.198;5.004;2023-05-23T11:14:17;13.23;;;3.15;;
48667;SDS011;34453;52.198;5.004;2023-05-23T11:16:44;16.17;;;3.03;;
48667;SDS011;34453;52.198;5.004;2023-05-23T11:21:51;13.65;;;3.33;;
48667;SDS011;34453;52.198;5.004;2023-05-23T11:25:00;10.02;;;3.78;;
48667;SDS011;34453;52.198;5.004;2023-05-23T11:27:26;17.80;;;4.05;;
48667;SDS011;34453;52.198;5.004;2023-05-23T11:30:03;10.60;;;2.80;;
48667;SDS011;34453;52.198;5.004;2023-05-23T11:32:40;13.53;;;2.97;;
48667;SDS011;34453;52.198;5.004;2023-05-23T11:35:07;14.38;;;3.13;;
48667;SDS011;34453;52.198;5.004;2023-05-23T11:37:35;13.10;;;2.92;;
48667;SDS011;34453;52.198;5.004;2023-05-23T11:42:58;16.77;;;3.40;;
48667;SDS011;34453;52.198;5.004;2023-05-23T11:45:25;11.23;;;3.08;;
48667;SDS011;34453;52.198;5.004;2023-05-23T11:47:52;11.05;;;3.10;;
48667;SDS011;34453;52.198;5.004;2023-05-23T11:50:17;9.20;;;2.90;;
48667;SDS011;34453;52.198;5.004;2023-05-23T11:52:45;10.68;;;3.03;;
48667;SDS011;34453;52.198;5.004;2023-05-23T11:55:15;13.07;;;3.45;;
48667;SDS011;34453;52.198;5.004;2023-05-23T11:57:43;11.98;;;2.72;;
48667;SDS011;34453;52.198;5.004;2023-05-23T12:00:09;17.15;;;3.75;;
48667;SDS011;34453;52.198;5.004;2023-05-23T12:02:39;9.15;;;2.53;;
48667;SDS011;34453;52.198;5.004;2023-05-23T12:05:14;10.02;;;3.45;;
48667;SDS011;34453;52.198;5.004;2023-05-23T12:07:43;9.68;;;2.60;;
48667;SDS011;34453;52.198;5.004;2023-05-23T12:10:11;18.40;;;4.93;;
48667;SDS011;34453;52.198;5.004;2023-05-23T12:12:42;8.45;;;3.45;;
48667;SDS011;34453;52.198;5.004;2023-05-23T12:15:09;17.35;;;2.60;;
48667;SDS011;34453;52.198;5.004;2023-05-23T12:17:36;13.80;;;3.53;;
48667;SDS011;34453;52.198;5.004;2023-05-23T12:20:03;8.40;;;2.35;;
48667;SDS011;34453;52.198;5.004;2023-05-23T12:22:30;10.80;;;2.38;;
48667;SDS011;34453;52.198;5.004;2023-05-23T12:24:55;9.93;;;2.85;;
48667;SDS011;34453;52.198;5.004;2023-05-23T12:27:32;7.78;;;1.77;;
48667;SDS011;34453;52.198;5.004;2023-05-23T12:30:15;6.80;;;2.72;;
48667;SDS011;34453;52.198;5.004;2023-05-23T12:32:42;11.50;;;3.15;;
48667;SDS011;34453;52.198;5.004;2023-05-23T12:35:10;12.18;;;2.90;;
48667;SDS011;34453;52.198;5.004;2023-05-23T12:37:38;9.68;;;3.03;;
48667;SDS011;34453;52.198;5.004;2023-05-23T12:40:11;9.25;;;3.35;;
48667;SDS011;34453;52.198;5.004;2023-05-23T12:42:57;9.95;;;2.53;;
48667;SDS011;34453;52.198;5.004;2023-05-23T12:45:23;16.73;;;3.10;;
48667;SDS011;34453;52.198;5.004;2023-05-23T12:47:57;13.15;;;4.60;;
48667;SDS011;34453;52.198;5.004;2023-05-23T12:50:22;18.30;;;3.63;;
48667;SDS011;34453;52.198;5.004;2023-05-23T12:52:48;15.35;;;2.78;;
48667;SDS011;34453;52.198;5.004;2023-05-23T12:55:14;8.27;;;2.05;;
48667;SDS011;34453;52.198;5.004;2023-05-23T12:57:40;15.98;;;2.58;;
48667;SDS011;34453;52.198;5.004;2023-05-23T13:00:06;9.40;;;2.17;;
48667;SDS011;34453;52.198;5.004;2023-05-23T13:02:33;9.82;;;2.65;;
48667;SDS011;34453;52.198;5.004;2023-05-23T13:04:59;7.65;;;2.13;;
48667;SDS011;34453;52.198;5.004;2023-05-23T13:07:25;15.95;;;2.00;;
48667;SDS011;34453;52.198;5.004;2023-05-23T13:09:51;7.97;;;2.25;;
48667;SDS011;34453;52.198;5.004;2023-05-23T13:12:17;11.68;;;2.88;;
48667;SDS011;34453;52.198;5.004;2023-05-23T13:14:43;19.50;;;2.78;;
48667;SDS011;34453;52.198;5.004;2023-05-23T13:17:10;10.18;;;2.63;;
48667;SDS011;34453;52.198;5.004;2023-05-23T13:19:36;8.48;;;2.10;;
48667;SDS011;34453;52.198;5.004;2023-05-23T13:22:04;12.02;;;3.25;;
48667;SDS011;34453;52.198;5.004;2023-05-23T13:24:31;14.40;;;3.65;;
48667;SDS011;34453;52.198;5.004;2023-05-23T13:26:57;10.55;;;2.25;;
48667;SDS011;34453;52.198;5.004;2023-05-23T13:29:23;14.52;;;3.20;;
48667;SDS011;34453;52.198;5.004;2023-05-23T13:31:49;10.23;;;2.30;;
48667;SDS011;34453;52.198;5.004;2023-05-23T13:34:15;12.57;;;3.70;;
48667;SDS011;34453;52.198;5.004;2023-05-23T13:36:41;6.00;;;1.88;;
48667;SDS011;34453;52.198;5.004;2023-05-23T13:39:07;10.90;;;2.92;;
48667;SDS011;34453;52.198;5.004;2023-05-23T13:41:33;12.13;;;2.63;;
48667;SDS011;34453;52.198;5.004;2023-05-23T13:44:00;12.13;;;4.32;;
48667;SDS011;34453;52.198;5.004;2023-05-23T13:46:26;17.55;;;2.28;;
48667;SDS011;34453;52.198;5.004;2023-05-23T13:48:52;13.65;;;3.10;;
48667;SDS011;34453;52.198;5.004;2023-05-23T13:51:18;9.48;;;2.42;;
48667;SDS011;34453;52.198;5.004;2023-05-23T13:53:45;9.93;;;2.42;;
48667;SDS011;34453;52.198;5.004;2023-05-23T13:56:11;8.43;;;2.28;;
48667;SDS011;34453;52.198;5.004;2023-05-23T13:58:37;9.57;;;2.53;;
48667;SDS011;34453;52.198;5.004;2023-05-23T14:01:04;14.57;;;3.58;;
48667;SDS011;34453;52.198;5.004;2023-05-23T14:03:30;7.75;;;2.20;;
48667;SDS011;34453;52.198;5.004;2023-05-23T14:05:57;8.80;;;1.73;;
48667;SDS011;34453;52.198;5.004;2023-05-23T14:08:24;8.73;;;1.65;;
48667;SDS011;34453;52.198;5.004;2023-05-23T14:10:50;10.93;;;2.33;;
48667;SDS011;34453;52.198;5.004;2023-05-23T14:13:17;10.43;;;1.80;;
48667;SDS011;34453;52.198;5.004;2023-05-23T14:15:43;15.20;;;3.03;;
48667;SDS011;34453;52.198;5.004;2023-05-23T14:18:10;12.45;;;2.72;;
48667;SDS011;34453;52.198;5.004;2023-05-23T14:20:37;12.95;;;2.47;;
48667;SDS011;34453;52.198;5.004;2023-05-23T14:23:03;8.02;;;3.15;;
48667;SDS011;34453;52.198;5.004;2023-05-23T14:25:29;13.82;;;2.35;;
48667;SDS011;34453;52.198;5.004;2023-05-23T14:27:56;9.98;;;2.20;;
48667;SDS011;34453;52.198;5.004;2023-05-23T14:30:23;16.27;;;3.25;;
48667;SDS011;34453;52.198;5.004;2023-05-23T14:32:49;9.30;;;2.75;;
48667;SDS011;34453;52.198;5.004;2023-05-23T14:35:16;16.25;;;3.15;;
48667;SDS011;34453;52.198;5.004;2023-05-23T14:37:43;13.55;;;3.38;;
48667;SDS011;34453;52.198;5.004;2023-05-23T14:40:11;7.75;;;2.38;;
48667;SDS011;34453;52.198;5.004;2023-05-23T14:42:38;6.55;;;2.15;;
48667;SDS011;34453;52.198;5.004;2023-05-23T14:45:05;8.63;;;2.20;;
48667;SDS011;34453;52.198;5.004;2023-05-23T14:47:32;10.88;;;2.92;;
48667;SDS011;34453;52.198;5.004;2023-05-23T14:50:00;11.23;;;2.28;;
48667;SDS011;34453;52.198;5.004;2023-05-23T14:52:26;9.80;;;2.05;;
48667;SDS011;34453;52.198;5.004;2023-05-23T14:54:53;3.75;;;1.85;;
48667;SDS011;34453;52.198;5.004;2023-05-23T14:57:20;6.90;;;2.55;;
48667;SDS011;34453;52.198;5.004;2023-05-23T14:59:47;8.93;;;3.97;;
48667;SDS011;34453;52.198;5.004;2023-05-23T15:02:13;6.22;;;2.00;;
48667;SDS011;34453;52.198;5.004;2023-05-23T15:04:41;7.47;;;1.70;;
48667;SDS011;34453;52.198;5.004;2023-05-23T15:07:08;6.55;;;1.98;;
48667;SDS011;34453;52.198;5.004;2023-05-23T15:09:34;10.00;;;2.03;;
48667;SDS011;34453;52.198;5.004;2023-05-23T15:12:01;10.70;;;1.92;;